Главная страница
METAR-TAF:

METAR-TAF

Аэропорты :

Йоэнсуу, Финляндия

широта: 62-40N, долгота: 029-38E, высота над уровнем моря: 119 м

Текущие метеонаблюдения

Эта сводка был подготовлена 26 минут назад, в 01:50 UTC
Ветер 4 Узел от южный
Температура 8°C
Влажность 100%
Давление 1012 hPa
Видимость 10 км и более
Нет облачности ниже 1500 м, и нет кучево-дождевой облачности

METAR: EFJO 160150Z AUTO 19004KT CAVOK 08/08 Q1012

Время: 05:16 (02:16 UTC)

Прогноз

Эта сводка был подготовлена 14 часа и 49 минут назад, в 11:27 UTC
Прогноз действительный с 15-го 12 UTC до 15-го 16 UTC
Ветер 10 Узел от южный-юго-западный
Видимость 10 км и более
Нет облачности ниже 1500 м, и нет кучево-дождевой облачности

TAF: EFJO 151127Z 1512/1516 21010KT CAVOK

Метеонаблюдения и прогнозы для более 4000 аэропортов (сводки METAR и TAF).

Имеющиеся станции представлены на карте желтыми и красными точками.

Чтобы увидеть название станции, наведите на нее мышь.

Затем щелкните, чтобы увидеть метеонаблюдения и метеопрогнозы.

Управление картой: чтобы увеличить масштаб, щелкните зеленые кнопки с черным крестиком; чтобы уменьшить масштаб, щелкните зеленую кнопку с тире; для просмотра соседних карт щелкайте зеленые стрелки.


METAR-TAF: